Time;durP1;ratioP1;P1;durP2;ratioP2;P2;SDS_P1;SDS_P2;PMS_P1;PMS_P2;Temp;Humidity;BMP_temperature;BMP_pressure;BME280_temperature;BME280_humidity;BME280_pressure;Samples;Min_cycle;Max_cycle;Signal;HPM_P1;HPM_P2
2022/01/26 00:07:55;;;;;;;;;;;;;;;-7.90;97.90;100888.59;5093646;28;20360;-62
2022/01/26 00:10:21;;;;;;;;;;;;;;;-7.84;97.90;100892.94;5093092;28;20014;-65
2022/01/26 00:12:48;;;;;;;;;;;;;;;-7.98;97.50;100892.66;5094857;28;19947;-66
2022/01/26 00:15:14;;;;;;;;;;;;;;;-8.01;97.55;100883.31;5095572;28;19931;-63
2022/01/26 00:17:41;;;;;;;;;;;;;;;-7.99;97.52;100881.69;5095057;28;19935;-63
2022/01/26 00:20:16;;;;;;;;;;;;;;;-7.98;97.65;100882.53;5094961;28;20355;-63
2022/01/26 00:22:57;;;;;;;;;;;;;;;-7.96;97.73;100868.28;5094804;28;19928;-63
2022/01/26 00:25:36;;;;;;;;;;;;;;;-7.99;97.82;100868.19;5094879;28;19931;-66
2022/01/26 00:28:31;;;;;;;;;;;;;;;-7.99;97.85;100858.09;5095041;28;19924;-64
2022/01/26 00:39:24;;;;;;;;;;;;;;;-7.84;98.00;100857.56;5094592;28;20417;-66
2022/01/26 00:41:55;;;;;;;;;;;;;;;-7.87;97.90;100860.88;5095056;28;19924;-66
2022/01/26 00:44:22;;;;;;;;;;;;;;;-8.00;97.41;100854.72;5094665;28;19924;-66
2022/01/26 00:46:49;;;;;;;;;;;;;;;-8.27;97.17;100849.91;5094377;28;19931;-66
2022/01/26 00:49:20;;;;;;;;;;;;;;;-8.49;97.60;100846.06;5094468;28;20390;-65
2022/01/26 00:51:47;;;;;;;;;;;;;;;-8.27;96.91;100844.00;5094466;28;19924;-65
2022/01/26 00:54:13;;;;;;;;;;;;;;;-8.44;96.12;100843.66;5094406;28;19924;-65
2022/01/26 00:56:41;;;;;;;;;;;;;;;-8.41;98.07;100837.00;5094287;28;20362;-65
2022/01/26 00:59:08;;;;;;;;;;;;;;;-8.36;98.82;100832.88;5094133;28;20438;-62
2022/01/26 01:01:34;;;;;;;;;;;;;;;-8.33;98.78;100820.31;5093618;28;19947;-63
2022/01/26 01:04:01;;;;;;;;;;;;;;;-8.30;98.59;100819.53;5094190;28;19924;-64
2022/01/26 01:06:32;;;;;;;;;;;;;;;-8.24;98.75;100827.25;5094182;28;19924;-65
2022/01/26 01:08:59;;;;;;;;;;;;;;;-8.37;98.42;100822.75;5094402;28;19924;-67
2022/01/26 01:11:26;;;;;;;;;;;;;;;-8.67;98.25;100817.88;5093757;28;20378;-66
2022/01/26 01:13:54;;;;;;;;;;;;;;;-8.66;98.12;100824.59;5093892;28;19925;-66
2022/01/26 01:16:22;;;;;;;;;;;;;;;-8.86;97.98;100824.09;5093950;28;19984;-66
2022/01/26 01:18:56;;;;;;;;;;;;;;;-9.28;97.65;100825.56;5093957;28;19977;-63
2022/01/26 01:22:07;;;;;;;;;;;;;;;-9.58;97.19;100822.22;5093669;28;19932;-63
2022/01/26 01:30:21;;;;;;;;;;;;;;;-9.95;98.32;100801.88;5089986;28;19930;-64
2022/01/26 01:32:53;;;;;;;;;;;;;;;-9.67;97.00;100802.69;5093722;28;19924;-66
2022/01/26 01:35:21;;;;;;;;;;;;;;;-9.62;96.19;100792.72;5093836;28;19924;-67
2022/01/26 01:37:47;;;;;;;;;;;;;;;-9.65;96.63;100780.91;5093613;28;20285;-66
2022/01/26 01:40:14;;;;;;;;;;;;;;;-9.90;97.45;100780.22;5093636;28;19931;-66
2022/01/26 01:42:41;;;;;;;;;;;;;;;-10.04;97.44;100783.13;5093700;28;19928;-65
2022/01/26 01:45:09;;;;;;;;;;;;;;;-10.08;97.67;100784.72;5093440;28;19960;-66
2022/01/26 01:47:36;;;;;;;;;;;;;;;-10.20;98.18;100785.22;5093431;28;19931;-64
2022/01/26 01:50:07;;;;;;;;;;;;;;;-9.83;96.25;100786.28;5093432;28;19935;-66
2022/01/26 01:52:34;;;;;;;;;;;;;;;-9.73;96.04;100782.38;5093209;28;19924;-63
2022/01/26 01:55:04;;;;;;;;;;;;;;;-9.65;95.74;100781.75;5093239;28;19931;-63
2022/01/26 01:57:30;;;;;;;;;;;;;;;-9.76;95.22;100783.13;5093438;28;19924;-66
2022/01/26 01:59:57;;;;;;;;;;;;;;;-9.88;95.14;100778.59;5092970;28;19931;-63
2022/01/26 02:02:25;;;;;;;;;;;;;;;-10.04;95.74;100773.94;5093088;28;19924;-63
2022/01/26 02:04:51;;;;;;;;;;;;;;;-10.35;95.72;100782.25;5093097;28;19928;-66
2022/01/26 02:07:18;;;;;;;;;;;;;;;-10.60;96.67;100778.19;5093041;28;19931;-63
2022/01/26 02:09:45;;;;;;;;;;;;;;;-10.75;96.85;100768.47;5092998;28;19931;-63
2022/01/26 02:12:13;;;;;;;;;;;;;;;-10.75;97.90;100773.50;5092952;28;19931;-66
2022/01/26 02:14:44;;;;;;;;;;;;;;;-10.75;98.33;100769.34;5093001;28;19924;-66
2022/01/26 02:17:20;;;;;;;;;;;;;;;-10.73;99.31;100758.50;5092885;28;19924;-66
2022/01/26 02:20:36;;;;;;;;;;;;;;;-10.73;99.31;100759.34;5092683;28;19924;-65
2022/01/26 02:50:41;;;;;;;;;;;;;;;-10.19;99.48;100716.47;5092558;28;19935;-63
2022/01/26 02:53:39;;;;;;;;;;;;;;;-10.21;98.26;100713.06;5092761;28;19983;-66
2022/01/26 02:56:14;;;;;;;;;;;;;;;-10.02;98.86;100719.44;5092506;28;19924;-64
2022/01/26 02:58:58;;;;;;;;;;;;;;;-9.87;98.40;100702.25;5092223;28;19924;-66
2022/01/26 03:01:41;;;;;;;;;;;;;;;-10.03;97.56;100719.44;5092410;28;19924;-66
2022/01/26 03:04:15;;;;;;;;;;;;;;;-10.07;97.67;100705.88;5092486;28;19924;-63
2022/01/26 03:06:48;;;;;;;;;;;;;;;-10.16;98.25;100705.66;5092485;28;20366;-67
2022/01/26 03:09:19;;;;;;;;;;;;;;;-10.04;97.36;100705.13;5092429;28;20267;-65
2022/01/26 03:11:48;;;;;;;;;;;;;;;-9.82;97.66;100704.91;5092225;28;20290;-67
2022/01/26 03:14:25;;;;;;;;;;;;;;;-9.78;97.94;100704.19;5092641;28;19993;-66
2022/01/26 03:16:56;;;;;;;;;;;;;;;-9.98;97.42;100700.28;5092793;28;19924;-67
2022/01/26 03:19:32;;;;;;;;;;;;;;;-9.91;96.87;100697.13;5092311;28;19924;-66
2022/01/26 03:22:19;;;;;;;;;;;;;;;-9.62;96.18;100690.31;5092083;28;19932;-65
2022/01/26 03:30:32;;;;;;;;;;;;;;;-9.98;95.48;100690.19;5096092;28;19931;-62
2022/01/26 03:33:23;;;;;;;;;;;;;;;-10.20;95.49;100696.28;5096044;28;19928;-63
2022/01/26 03:35:53;;;;;;;;;;;;;;;-10.34;96.82;100694.28;5095894;28;19924;-65
2022/01/26 03:38:23;;;;;;;;;;;;;;;-10.37;96.97;100686.66;5095684;28;19924;-66
2022/01/26 03:41:00;;;;;;;;;;;;;;;-10.36;97.29;100693.38;5095772;28;19998;-67
2022/01/26 03:43:28;;;;;;;;;;;;;;;-10.30;96.70;100677.59;5096687;28;19975;-63
2022/01/26 03:45:55;;;;;;;;;;;;;;;-10.31;95.54;100684.28;5095862;28;20404;-66
2022/01/26 03:48:21;;;;;;;;;;;;;;;-10.44;96.56;100674.69;5095566;28;19924;-64
2022/01/26 03:50:48;;;;;;;;;;;;;;;-10.49;96.86;100670.34;5095772;28;20400;-64
2022/01/26 03:53:15;;;;;;;;;;;;;;;-10.48;96.66;100669.53;5095632;28;20302;-65
2022/01/26 03:55:41;;;;;;;;;;;;;;;-10.27;96.10;100664.25;5095861;28;19947;-63
2022/01/26 03:58:08;;;;;;;;;;;;;;;-10.28;95.72;100662.56;5095744;28;19925;-66
2022/01/26 04:00:36;;;;;;;;;;;;;;;-10.26;95.47;100664.28;5095430;28;19927;-63
2022/01/26 04:03:03;;;;;;;;;;;;;;;-10.34;94.83;100665.75;5095427;28;19924;-63
2022/01/26 04:05:29;;;;;;;;;;;;;;;-10.64;95.05;100665.72;5095345;28;20374;-63
2022/01/26 04:08:02;;;;;;;;;;;;;;;-10.72;96.21;100662.97;5095314;28;19925;-63
2022/01/26 04:10:39;;;;;;;;;;;;;;;-10.85;95.54;100646.69;5095492;28;19947;-62
2022/01/26 04:13:06;;;;;;;;;;;;;;;-10.83;95.59;100645.06;5095061;28;20005;-62
2022/01/26 04:15:35;;;;;;;;;;;;;;;-10.87;96.28;100649.94;5095198;28;19928;-63
2022/01/26 04:18:06;;;;;;;;;;;;;;;-10.82;96.14;100641.75;5095290;28;19924;-63
2022/01/26 04:20:37;;;;;;;;;;;;;;;-10.82;96.25;100640.88;5095003;28;19975;-63
2022/01/26 04:23:11;;;;;;;;;;;;;;;-10.73;95.93;100640.31;5094830;28;20031;-63
2022/01/26 04:25:40;;;;;;;;;;;;;;;-10.67;96.09;100631.28;5095344;28;19946;-64
2022/01/26 04:28:11;;;;;;;;;;;;;;;-10.49;96.83;100642.69;5094842;28;19978;-63
2022/01/26 04:30:38;;;;;;;;;;;;;;;-10.40;96.43;100637.91;5094800;28;20019;-65
2022/01/26 04:33:07;;;;;;;;;;;;;;;-10.28;95.93;100633.22;5094667;28;19924;-63
2022/01/26 04:35:34;;;;;;;;;;;;;;;-10.09;95.25;100637.91;5093648;28;20293;-64
2022/01/26 04:38:14;;;;;;;;;;;;;;;-10.09;95.15;100637.91;5094808;28;19924;-63
2022/01/26 04:40:48;;;;;;;;;;;;;;;-9.67;94.72;100639.81;5094715;28;20332;-64
2022/01/26 04:43:19;;;;;;;;;;;;;;;-9.83;94.67;100632.72;5094577;28;20357;-63
2022/01/26 04:45:46;;;;;;;;;;;;;;;-9.61;94.17;100629.03;5094411;28;19928;-63
2022/01/26 04:48:14;;;;;;;;;;;;;;;-9.55;94.73;100621.66;5094846;28;19928;-63
2022/01/26 04:50:40;;;;;;;;;;;;;;;-9.71;94.60;100624.59;5094610;28;19924;-63
2022/01/26 04:53:07;;;;;;;;;;;;;;;-9.61;94.68;100613.94;5094421;28;19927;-63
2022/01/26 04:55:33;;;;;;;;;;;;;;;-9.73;94.88;100618.69;5094296;28;19924;-66
2022/01/26 04:58:00;;;;;;;;;;;;;;;-9.28;94.93;100615.56;5094171;28;19924;-66
2022/01/26 05:00:27;;;;;;;;;;;;;;;-9.36;95.05;100617.06;5094368;28;19924;-65
2022/01/26 05:02:53;;;;;;;;;;;;;;;-9.21;94.88;100609.84;5094313;28;19942;-63
2022/01/26 05:05:21;;;;;;;;;;;;;;;-9.43;95.60;100601.81;5094246;28;19928;-63
2022/01/26 05:07:48;;;;;;;;;;;;;;;-9.32;95.15;100614.66;5094025;28;19931;-64
2022/01/26 05:10:15;;;;;;;;;;;;;;;-9.14;93.54;100618.38;5094145;28;19924;-65
2022/01/26 05:12:41;;;;;;;;;;;;;;;-9.00;93.81;100619.56;5094136;28;19924;-63
2022/01/26 05:15:08;;;;;;;;;;;;;;;-9.01;93.21;100610.31;5094361;28;20011;-62
2022/01/26 05:17:36;;;;;;;;;;;;;;;-8.98;94.19;100602.81;5094103;28;19924;-62
2022/01/26 05:20:03;;;;;;;;;;;;;;;-8.83;95.14;100598.09;5094029;28;19924;-64
2022/01/26 05:22:32;;;;;;;;;;;;;;;-8.88;96.62;100606.38;5093764;28;19931;-63
2022/01/26 05:24:59;;;;;;;;;;;;;;;-8.92;96.92;100607.13;5093688;28;19924;-64
2022/01/26 05:27:25;;;;;;;;;;;;;;;-8.93;97.24;100607.94;5094141;28;19935;-63
2022/01/26 05:29:52;;;;;;;;;;;;;;;-8.90;97.05;100601.28;5093770;28;19924;-64
2022/01/26 05:32:19;;;;;;;;;;;;;;;-8.92;97.36;100609.63;5093683;28;19924;-63
2022/01/26 05:34:46;;;;;;;;;;;;;;;-8.92;97.22;100604.59;5093747;28;20461;-65
2022/01/26 05:37:12;;;;;;;;;;;;;;;-8.95;97.14;100600.34;5093744;28;19928;-64
2022/01/26 05:39:40;;;;;;;;;;;;;;;-8.88;97.44;100603.84;5093368;28;19941;-62
2022/01/26 05:42:07;;;;;;;;;;;;;;;-8.91;97.17;100596.19;5094041;28;19924;-62
2022/01/26 05:44:34;;;;;;;;;;;;;;;-8.94;97.22;100596.16;5093691;28;19927;-62
2022/01/26 05:47:00;;;;;;;;;;;;;;;-8.98;97.20;100588.53;5093065;28;19931;-62
2022/01/26 05:49:27;;;;;;;;;;;;;;;-8.96;96.93;100592.72;5093063;28;20294;-62
2022/01/26 05:51:54;;;;;;;;;;;;;;;-9.00;97.11;100584.25;5093132;28;19924;-62
2022/01/26 05:54:20;;;;;;;;;;;;;;;-9.04;96.88;100585.88;5093245;28;20314;-62
2022/01/26 05:56:48;;;;;;;;;;;;;;;-9.04;96.66;100582.47;5093608;28;19924;-63
2022/01/26 05:59:15;;;;;;;;;;;;;;;-9.00;96.55;100575.03;5093159;28;20329;-66
2022/01/26 06:01:42;;;;;;;;;;;;;;;-9.00;96.42;100574.19;5093058;28;19924;-63
2022/01/26 06:04:09;;;;;;;;;;;;;;;-9.05;97.07;100570.72;5093173;28;19932;-62
2022/01/26 06:06:35;;;;;;;;;;;;;;;-9.07;97.05;100559.72;5093282;28;19928;-66
2022/01/26 06:09:02;;;;;;;;;;;;;;;-9.03;97.66;100564.88;5093354;28;19924;-66
2022/01/26 06:11:28;;;;;;;;;;;;;;;-9.01;96.96;100568.28;5093111;28;19924;-66
2022/01/26 06:13:56;;;;;;;;;;;;;;;-9.06;97.27;100564.81;5092966;28;20375;-68
2022/01/26 06:16:23;;;;;;;;;;;;;;;-9.03;97.32;100559.84;5092855;28;19924;-62
2022/01/26 06:18:50;;;;;;;;;;;;;;;-9.02;97.00;100550.59;5092805;28;20259;-66
2022/01/26 06:21:16;;;;;;;;;;;;;;;-8.97;97.45;100541.47;5092807;28;19928;-67
2022/01/26 06:23:43;;;;;;;;;;;;;;;-8.99;97.38;100533.88;5093018;28;19924;-64
2022/01/26 06:26:09;;;;;;;;;;;;;;;-8.90;97.46;100532.38;5092772;28;20385;-62
2022/01/26 06:28:36;;;;;;;;;;;;;;;-8.90;97.41;100534.88;5092765;28;20286;-66
2022/01/26 06:31:09;;;;;;;;;;;;;;;-8.94;97.74;100531.44;5092804;28;19924;-68
2022/01/26 06:33:36;;;;;;;;;;;;;;;-8.91;97.51;100521.44;5092664;28;20362;-68
2022/01/26 06:36:04;;;;;;;;;;;;;;;-8.90;97.41;100520.59;5092831;28;19924;-69
2022/01/26 06:38:30;;;;;;;;;;;;;;;-8.86;97.28;100518.97;5092627;28;20396;-68
2022/01/26 06:40:58;;;;;;;;;;;;;;;-8.81;97.17;100504.78;5092400;28;19924;-65
2022/01/26 06:43:27;;;;;;;;;;;;;;;-8.80;96.56;100501.47;5092310;28;19924;-66
2022/01/26 06:45:59;;;;;;;;;;;;;;;-8.86;96.45;100496.28;5080485;28;19924;-67
2022/01/26 06:51:14;;;;;;;;;;;;;;;-8.89;97.14;100501.28;5086724;28;20040;-68
2022/01/26 06:53:41;;;;;;;;;;;;;;;-8.92;97.35;100503.75;5087116;28;19924;-67
2022/01/26 06:56:07;;;;;;;;;;;;;;;-8.90;97.07;100499.59;5086227;28;19940;-67
2022/01/26 06:58:34;;;;;;;;;;;;;;;-8.90;96.97;100500.44;5072544;28;19943;-68
2022/01/26 07:01:01;;;;;;;;;;;;;;;-8.84;96.60;100494.66;5075282;28;19928;-68
2022/01/26 07:03:29;;;;;;;;;;;;;;;-8.82;97.24;100503.09;5074330;28;19929;-68
2022/01/26 07:05:55;;;;;;;;;;;;;;;-8.77;97.00;100509.09;5084339;28;20362;-68
2022/01/26 07:08:22;;;;;;;;;;;;;;;-8.79;97.19;100515.75;5095462;28;20374;-68
2022/01/26 07:10:51;;;;;;;;;;;;;;;-8.80;96.63;100519.13;5095935;28;19928;-69
2022/01/26 07:13:18;;;;;;;;;;;;;;;-8.68;96.85;100511.81;5094533;28;19930;-68
2022/01/26 07:21:23;;;;;;;;;;;;;;;-8.66;97.12;100495.00;5073808;28;19935;-63
2022/01/26 07:23:50;;;;;;;;;;;;;;;-8.73;97.15;100500.78;5074434;28;19975;-62
2022/01/26 07:26:16;;;;;;;;;;;;;;;-8.50;97.14;100496.16;5075098;28;19925;-68
2022/01/26 07:28:43;;;;;;;;;;;;;;;-8.47;96.54;100490.31;5079748;28;19924;-67
2022/01/26 07:31:10;;;;;;;;;;;;;;;-8.48;96.98;100488.59;5077073;28;19931;-68
2022/01/26 07:33:39;;;;;;;;;;;;;;;-8.47;96.92;100472.66;5074780;28;19924;-68
2022/01/26 07:36:06;;;;;;;;;;;;;;;-8.42;96.81;100476.97;5073877;28;19960;-62
2022/01/26 07:38:33;;;;;;;;;;;;;;;-8.38;96.96;100476.13;5082052;28;19932;-64
2022/01/26 07:40:59;;;;;;;;;;;;;;;-8.35;96.40;100483.78;5094193;28;19932;-68
2022/01/26 07:43:26;;;;;;;;;;;;;;;-8.38;96.40;100482.88;5106607;22;19924;-68
2022/01/26 07:45:52;;;;;;;;;;;;;;;-8.42;96.19;100487.06;5095682;28;19932;-67
2022/01/26 07:48:19;;;;;;;;;;;;;;;-8.36;96.12;100477.00;5093765;28;20354;-67
2022/01/26 07:50:50;;;;;;;;;;;;;;;-8.39;96.31;100474.44;5093786;28;20295;-67
2022/01/26 07:53:17;;;;;;;;;;;;;;;-8.42;96.65;100471.91;5094363;28;19963;-68
2022/01/26 07:55:44;;;;;;;;;;;;;;;-8.35;96.72;100461.06;5094273;28;20312;-68
2022/01/26 07:58:11;;;;;;;;;;;;;;;-8.38;96.71;100463.53;5093384;28;20294;-68
2022/01/26 08:00:38;;;;;;;;;;;;;;;-8.34;96.76;100466.97;5094341;28;19924;-68
2022/01/26 08:03:05;;;;;;;;;;;;;;;-8.25;96.51;100457.00;5094212;28;19935;-67
2022/01/26 08:05:31;;;;;;;;;;;;;;;-8.20;96.20;100455.41;5093704;28;19924;-67
2022/01/26 08:07:59;;;;;;;;;;;;;;;-8.21;96.08;100455.41;5092932;28;20362;-68
2022/01/26 08:10:26;;;;;;;;;;;;;;;-8.21;96.14;100451.19;5093539;28;19924;-68
2022/01/26 08:12:52;;;;;;;;;;;;;;;-8.22;95.92;100441.94;5094460;28;20019;-68
2022/01/26 08:15:19;;;;;;;;;;;;;;;-8.12;96.13;100450.47;5093441;28;19925;-68
2022/01/26 08:17:46;;;;;;;;;;;;;;;-8.13;96.31;100441.22;5093113;28;19973;-69
2022/01/26 08:20:12;;;;;;;;;;;;;;;-8.14;96.45;100437.00;5094105;28;19925;-69
2022/01/26 08:22:39;;;;;;;;;;;;;;;-8.13;96.45;100426.91;5094215;28;19924;-69
2022/01/26 08:25:08;;;;;;;;;;;;;;;-8.06;96.46;100424.50;5092663;28;20294;-69
2022/01/26 08:27:40;;;;;;;;;;;;;;;-8.17;96.65;100419.25;5093027;28;19924;-68
2022/01/26 08:30:10;;;;;;;;;;;;;;;-8.11;96.73;100420.22;5093859;28;19969;-69
2022/01/26 08:32:36;;;;;;;;;;;;;;;-8.10;96.86;100418.53;5093464;28;19928;-68
2022/01/26 08:35:03;;;;;;;;;;;;;;;-8.14;96.98;100416.81;5093215;28;19931;-68
2022/01/26 08:37:29;;;;;;;;;;;;;;;-8.13;97.06;100410.94;5092910;28;19931;-69
2022/01/26 08:39:56;;;;;;;;;;;;;;;-8.07;96.93;100405.97;5093783;28;20289;-69
2022/01/26 08:42:24;;;;;;;;;;;;;;;-8.10;97.08;100414.34;5105710;22;19953;-68
2022/01/26 08:44:51;;;;;;;;;;;;;;;-8.13;97.37;100419.34;5091869;28;20362;-68
2022/01/26 08:47:18;;;;;;;;;;;;;;;-8.03;96.99;100414.44;5093576;28;20286;-63
2022/01/26 08:49:44;;;;;;;;;;;;;;;-7.96;97.06;100421.28;5094819;28;20032;-67
2022/01/26 08:52:11;;;;;;;;;;;;;;;-7.90;96.97;100416.31;5092277;28;20348;-67
2022/01/26 08:54:37;;;;;;;;;;;;;;;-7.84;97.02;100405.44;5093309;28;19928;-67
2022/01/26 08:57:04;;;;;;;;;;;;;;;-7.84;97.29;100401.25;5093487;28;19923;-68
2022/01/26 08:59:32;;;;;;;;;;;;;;;-7.80;97.41;100392.88;5093410;28;19924;-67
2022/01/26 09:01:59;;;;;;;;;;;;;;;-7.75;97.21;100387.91;5091669;28;20389;-67
2022/01/26 09:04:25;;;;;;;;;;;;;;;-7.77;97.27;100392.94;5092761;28;19929;-68
2022/01/26 09:06:54;;;;;;;;;;;;;;;-7.80;97.40;100380.25;5093229;28;19931;-66
2022/01/26 09:09:22;;;;;;;;;;;;;;;-7.75;97.33;100383.69;5092483;28;20003;-63
2022/01/26 09:11:49;;;;;;;;;;;;;;;-7.77;97.57;100374.41;5092862;28;19927;-66
2022/01/26 09:14:20;;;;;;;;;;;;;;;-7.72;97.63;100378.69;5078762;28;20290;-68
2022/01/26 09:16:49;;;;;;;;;;;;;;;-7.70;97.59;100374.50;5093205;28;19924;-68
2022/01/26 09:19:26;;;;;;;;;;;;;;;-7.63;97.34;100367.84;5091967;28;20044;-68
2022/01/26 09:21:53;;;;;;;;;;;;;;;-7.60;97.25;100356.91;5092130;28;20873;-66
2022/01/26 09:24:19;;;;;;;;;;;;;;;-7.55;96.81;100358.69;5092827;28;19924;-65
2022/01/26 09:26:46;;;;;;;;;;;;;;;-7.56;97.12;100362.03;5092762;28;19932;-68
2022/01/26 09:29:13;;;;;;;;;;;;;;;-7.51;97.13;100362.09;5092038;28;19986;-62
2022/01/26 09:31:39;;;;;;;;;;;;;;;-7.51;97.03;100359.56;5092399;28;19928;-66
2022/01/26 09:34:07;;;;;;;;;;;;;;;-7.43;96.95;100360.50;5092625;28;20302;-67
2022/01/26 09:36:34;;;;;;;;;;;;;;;-7.45;96.58;100357.09;5090876;28;19931;-66
2022/01/26 09:39:00;;;;;;;;;;;;;;;-7.45;96.76;100350.41;5092339;28;19934;-62
2022/01/26 09:41:27;;;;;;;;;;;;;;;-7.39;96.64;100348.78;5092529;28;19924;-67
2022/01/26 09:43:53;;;;;;;;;;;;;;;-7.36;96.84;100348.81;5093757;28;19928;-66
2022/01/26 09:46:20;;;;;;;;;;;;;;;-7.36;96.87;100352.16;5091148;28;19924;-63
2022/01/26 09:48:47;;;;;;;;;;;;;;;-7.46;97.22;100346.16;5091376;28;20382;-63
2022/01/26 09:51:16;;;;;;;;;;;;;;;-7.46;97.67;100345.31;5092079;28;19928;-63
2022/01/26 09:53:43;;;;;;;;;;;;;;;-7.47;97.89;100341.09;5091845;28;19954;-62
2022/01/26 09:56:09;;;;;;;;;;;;;;;-7.33;97.47;100334.50;5091601;28;19931;-62
2022/01/26 09:58:36;;;;;;;;;;;;;;;-7.30;97.34;100339.59;5091909;28;19932;-62
2022/01/26 10:01:05;;;;;;;;;;;;;;;-7.38;97.75;100340.34;5090930;28;20384;-62
2022/01/26 10:03:34;;;;;;;;;;;;;;;-7.31;97.92;100332.00;5091352;28;20318;-62
2022/01/26 10:06:01;;;;;;;;;;;;;;;-7.28;97.90;100326.97;5091972;28;19932;-62
2022/01/26 10:08:57;;;;;;;;;;;;;;;-7.20;97.67;100324.53;5090885;28;20402;-63
2022/01/26 10:19:41;;;;;;;;;;;;;;;-6.95;97.21;100310.44;5092585;28;19947;-64
2022/01/26 10:22:08;;;;;;;;;;;;;;;-6.91;96.92;100312.16;5091046;28;19924;-64
2022/01/26 10:24:36;;;;;;;;;;;;;;;-6.81;96.80;100313.94;5090497;28;19924;-65
2022/01/26 10:27:03;;;;;;;;;;;;;;;-6.78;96.81;100311.44;5091899;28;19963;-62
2022/01/26 10:29:33;;;;;;;;;;;;;;;-6.80;96.69;100308.06;5092573;28;19954;-67
2022/01/26 10:32:10;;;;;;;;;;;;;;;-6.80;96.65;100313.13;5090515;28;19924;-68
2022/01/26 10:34:37;;;;;;;;;;;;;;;-6.79;97.10;100310.56;5091011;28;20259;-66
2022/01/26 10:37:04;;;;;;;;;;;;;;;-6.79;97.36;100310.56;5091895;28;19947;-63
2022/01/26 10:39:36;;;;;;;;;;;;;;;-6.81;97.76;100303.81;5091698;28;19932;-62
2022/01/26 10:42:07;;;;;;;;;;;;;;;-6.78;98.08;100298.81;5091466;28;20018;-63
2022/01/26 10:44:40;;;;;;;;;;;;;;;-6.73;98.05;100297.16;5089372;28;20312;-62
2022/01/26 10:47:08;;;;;;;;;;;;;;;-6.74;98.21;100284.47;5091976;28;20381;-64
2022/01/26 10:50:06;;;;;;;;;;;;;;;-6.72;98.24;100283.66;5090989;28;19930;-67
2022/01/26 10:52:35;;;;;;;;;;;;;;;-6.68;98.14;100276.94;5090904;28;19930;-67
2022/01/26 10:55:02;;;;;;;;;;;;;;;-6.70;98.51;100284.53;5091531;28;19928;-68
2022/01/26 10:57:30;;;;;;;;;;;;;;;-6.64;98.69;100281.19;5091574;28;19963;-62
2022/01/26 10:59:56;;;;;;;;;;;;;;;-6.58;98.34;100276.16;5089793;28;20030;-67
2022/01/26 11:02:26;;;;;;;;;;;;;;;-6.59;98.38;100265.19;5091247;28;19931;-63
2022/01/26 11:04:53;;;;;;;;;;;;;;;-6.62;98.42;100270.25;5091741;28;20026;-67
2022/01/26 11:07:20;;;;;;;;;;;;;;;-6.55;98.44;100268.59;5090553;28;19924;-64
2022/01/26 11:09:48;;;;;;;;;;;;;;;-6.48;98.47;100257.66;5091189;28;19924;-64
2022/01/26 11:12:15;;;;;;;;;;;;;;;-6.42;98.60;100256.84;5090695;28;20428;-63
2022/01/26 11:14:44;;;;;;;;;;;;;;;-6.44;98.57;100256.88;5091633;28;19947;-62
2022/01/26 11:17:13;;;;;;;;;;;;;;;-6.33;98.17;100251.00;5090130;28;19932;-62
2022/01/26 11:19:40;;;;;;;;;;;;;;;-6.35;98.22;100249.31;5090756;28;19977;-62
2022/01/26 11:22:07;;;;;;;;;;;;;;;-6.36;98.28;100241.72;5091406;28;19924;-64
2022/01/26 11:24:42;;;;;;;;;;;;;;;-6.34;98.64;100245.09;5091676;28;19924;-63
2022/01/26 11:27:08;;;;;;;;;;;;;;;-6.21;98.12;100244.34;5090578;28;20289;-62
2022/01/26 11:29:37;;;;;;;;;;;;;;;-6.19;97.97;100240.13;5091416;28;20255;-62
2022/01/26 11:32:10;;;;;;;;;;;;;;;-6.16;97.96;100231.69;5090660;28;19978;-65
2022/01/26 11:34:36;;;;;;;;;;;;;;;-6.17;97.95;100223.22;5090556;28;19928;-62
2022/01/26 11:37:05;;;;;;;;;;;;;;;-6.15;97.76;100230.84;5091002;28;19947;-63
2022/01/26 11:45:08;;;;;;;;;;;;;;;-6.08;98.29;100226.66;5054124;28;19924;-64
2022/01/26 11:47:38;;;;;;;;;;;;;;;-6.03;98.20;100225.00;5094019;28;20336;-62
2022/01/26 11:50:06;;;;;;;;;;;;;;;-6.03;98.59;100209.81;5094737;28;19931;-63
2022/01/26 11:52:35;;;;;;;;;;;;;;;-6.02;98.00;100211.47;5094179;28;19928;-63
2022/01/26 11:55:04;;;;;;;;;;;;;;;-6.00;98.20;100213.19;5093891;28;19924;-67
2022/01/26 11:57:38;;;;;;;;;;;;;;;-6.00;98.34;100208.13;5094357;28;20421;-67
2022/01/26 12:00:09;;;;;;;;;;;;;;;-6.02;98.24;100204.72;5095389;28;20373;-66
2022/01/26 12:02:50;;;;;;;;;;;;;;;-6.07;98.34;100206.41;5093147;28;20259;-66
2022/01/26 12:05:20;;;;;;;;;;;;;;;-6.04;98.93;100203.88;5094686;28;19924;-66
2022/01/26 12:07:47;;;;;;;;;;;;;;;-6.09;99.19;100197.09;5093219;28;20275;-65
2022/01/26 12:10:18;;;;;;;;;;;;;;;-6.10;99.37;100203.00;5094432;28;19928;-65
2022/01/26 12:12:45;;;;;;;;;;;;;;;-6.14;99.46;100197.94;5093575;28;19925;-62
2022/01/26 12:15:16;;;;;;;;;;;;;;;-6.05;99.12;100193.75;5093925;28;19924;-67
2022/01/26 12:17:59;;;;;;;;;;;;;;;-6.00;99.53;100194.59;5094980;28;20031;-63
2022/01/26 12:32:11;;;;;;;;;;;;;;;-6.07;99.22;100185.28;5093336;28;19966;-68
2022/01/26 12:34:47;;;;;;;;;;;;;;;-6.07;99.07;100193.72;5093399;28;19932;-68
2022/01/26 12:37:20;;;;;;;;;;;;;;;-6.07;99.20;100191.19;5093795;28;19966;-63
2022/01/26 12:42:57;;;;;;;;;;;;;;;-6.08;99.46;100191.22;5093872;28;19933;-67
2022/01/26 12:45:24;;;;;;;;;;;;;;;-6.04;99.63;100176.00;5093698;28;19993;-67
2022/01/26 12:47:51;;;;;;;;;;;;;;;-6.02;99.48;100174.31;5092503;28;20262;-67
2022/01/26 12:50:20;;;;;;;;;;;;;;;-6.04;99.30;100170.94;5093288;28;19924;-67
2022/01/26 12:52:47;;;;;;;;;;;;;;;-6.01;99.38;100158.31;5093488;28;19935;-67
2022/01/26 12:55:20;;;;;;;;;;;;;;;-6.00;98.69;100170.13;5092995;28;19928;-66
2022/01/26 12:57:46;;;;;;;;;;;;;;;-6.01;99.06;100167.56;5087386;28;19928;-67
2022/01/26 13:00:13;;;;;;;;;;;;;;;-5.99;98.98;100166.72;5088734;28;19924;-67
2022/01/26 13:02:40;;;;;;;;;;;;;;;-5.92;99.30;100172.63;5093634;28;19924;-67
2022/01/26 13:05:07;;;;;;;;;;;;;;;-6.00;98.67;100169.28;5092077;28;19928;-67
2022/01/26 13:07:35;;;;;;;;;;;;;;;-6.00;99.46;100171.81;5092995;28;19924;-67
2022/01/26 13:10:02;;;;;;;;;;;;;;;-6.00;99.32;100167.59;5093386;28;20309;-68
2022/01/26 13:12:29;;;;;;;;;;;;;;;-5.91;99.37;100166.72;5093386;28;19932;-68
2022/01/26 13:15:05;;;;;;;;;;;;;;;-6.02;99.20;100159.13;5092463;28;20355;-68
2022/01/26 13:17:38;;;;;;;;;;;;;;;-5.98;99.00;100153.25;5092293;28;20016;-68
2022/01/26 13:20:20;;;;;;;;;;;;;;;-6.02;98.45;100143.94;5093104;28;20007;-64
2022/01/26 13:23:01;;;;;;;;;;;;;;;-5.96;98.38;100136.38;5091914;28;19932;-64
2022/01/26 13:25:37;;;;;;;;;;;;;;;-5.97;98.39;100142.25;5091977;28;20340;-67
2022/01/26 13:36:45;;;;;;;;;;;;;;;-6.06;99.26;100128.72;5009832;28;19925;-65
2022/01/26 13:39:28;;;;;;;;;;;;;;;-6.04;99.46;100122.81;5082393;28;19930;-66
2022/01/26 13:42:16;;;;;;;;;;;;;;;-6.03;99.08;100119.44;5091934;28;19937;-62
2022/01/26 13:45:01;;;;;;;;;;;;;;;-6.10;99.36;100117.75;5092388;28;19990;-68
2022/01/26 13:47:58;;;;;;;;;;;;;;;-6.10;99.56;100117.75;5092921;28;20278;-67
2022/01/26 13:50:31;;;;;;;;;;;;;;;-6.04;99.78;100114.38;5092069;28;19928;-67
2022/01/26 13:53:03;;;;;;;;;;;;;;;-6.05;99.27;100110.16;5088841;28;19928;-63
2022/01/26 13:55:57;;;;;;;;;;;;;;;-6.00;99.25;100101.72;5092486;28;19931;-64
2022/01/26 13:58:46;;;;;;;;;;;;;;;-6.10;99.25;100094.94;5092080;28;19946;-65
2022/01/26 14:01:19;;;;;;;;;;;;;;;-6.02;99.09;100092.44;5091582;28;19931;-66
2022/01/26 14:03:49;;;;;;;;;;;;;;;-5.98;99.16;100084.84;5091633;28;19924;-62
2022/01/26 14:06:16;;;;;;;;;;;;;;;-6.00;99.03;100085.69;5093289;28;19932;-63
2022/01/26 14:08:43;;;;;;;;;;;;;;;-6.05;99.29;100080.59;5089889;28;19932;-67
2022/01/26 14:11:11;;;;;;;;;;;;;;;-6.04;99.32;100077.22;5091511;28;19928;-65
2022/01/26 14:13:38;;;;;;;;;;;;;;;-6.00;99.53;100078.09;5091968;28;20414;-66
2022/01/26 14:16:08;;;;;;;;;;;;;;;-6.07;99.25;100076.38;5091482;28;20027;-67
2022/01/26 14:18:46;;;;;;;;;;;;;;;-6.03;99.16;100071.31;5087763;28;20014;-65
2022/01/26 14:21:27;;;;;;;;;;;;;;;-6.03;99.58;100062.88;5091752;28;20031;-64
2022/01/26 14:24:24;;;;;;;;;;;;;;;-6.03;99.09;100056.13;5092575;28;20023;-67
2022/01/26 14:26:56;;;;;;;;;;;;;;;-6.05;99.18;100059.50;5089935;28;19924;-66
2022/01/26 14:29:35;;;;;;;;;;;;;;;-6.06;99.00;100051.06;5092069;28;20447;-69